Weather reports worldwide

Advertisment
Brocken, Germany (10453): temperature & dewpoint: 20.09.2020 13:00:00 - 26.09.2020 13:00:00 (CEST)Brocken, Germany (10453): wind speed & gusts: 20.09.2020 13:00:00 - 26.09.2020 13:00:00 (CEST)Brocken, Germany (10453): wind direction: 20.09.2020 13:00:00 - 26.09.2020 13:00:00 (CEST)Brocken, Germany (10453): visibility: 20.09.2020 13:00:00 - 26.09.2020 13:00:00 (CEST)Brocken, Germany (10453): sunshine duration: 20.09.2020 13:00:00 - 26.09.2020 13:00:00 (CEST)
Date & Time tt [°C] td [°C] ff [km/h] ff [kn] fx [km/h] fx [kn] dd vv [km] sd [min]
26.09.2020 13:00:00 2,6 2,5 9 5 18 10 N 0,2 0
26.09.2020 12:00:00 2,8 2,8 11 6 20 11 NNE 0,1 0
26.09.2020 11:00:00 2,4 2,4 13 7 18 10 ENE 0,1 0
26.09.2020 10:00:00 2,5 2,3 10 5 13 7 ENE 0,9 0
26.09.2020 09:00:00 3,1 1,4 3 2 9 5 E 46 0
26.09.2020 08:00:00 2,5 0,4 5 3 8 4 S 72 0
26.09.2020 07:00:00 2,8 0,0 5 3 15 8 ESE 75 0
26.09.2020 06:00:00 2,5 0,2 14 8 25 14 WSW 75 0
26.09.2020 05:00:00 1,9 1,8 22 12 34 18 WSW 0,3 0
26.09.2020 04:00:00 2,4 2,4 24 13 39 21 SW 0,1 0
26.09.2020 03:00:00 2,7 2,7 27 14 37 20 WSW 0,1 0
26.09.2020 02:00:00 2,9 2,9 29 16 39 21 WSW 0,1 0
26.09.2020 01:00:00 2,9 2,9 31 17 42 23 WSW 0,1 0
26.09.2020 00:00:00 2,9 2,9 29 15 41 22 WSW 0,1 0
25.09.2020 23:00:00 2,9 2,9 31 17 45 24 SW 0,1 0
25.09.2020 22:00:00 2,9 2,9 35 19 43 23 SW 0,2 0
25.09.2020 21:00:00 3,2 2,3 33 18 43 23 SSW 44 0
25.09.2020 20:00:00 3,2 2,1 34 18 40 21 SW 52 0
25.09.2020 19:00:00 3,5 1,6 28 15 45 24 SW 61 0
25.09.2020 18:00:00 3,9 1,2 35 19 47 25 SW 71 3
25.09.2020 17:00:00 4,5 1,0 36 20 45 24 SW 71 12
25.09.2020 16:00:00 5,3 1,6 32 17 47 25 SW 75 39
25.09.2020 15:00:00 5,8 2,1 35 19 48 26 WSW 69 30
25.09.2020 14:00:00 4,6 3,8 29 16 46 25 SW 53 20
25.09.2020 13:00:00 4,7 4,5 32 17 46 25 WSW 0,5 2
25.09.2020 12:00:00 4,8 4,4 36 19 52 28 WSW 2,9 5
25.09.2020 11:00:00 4,7 4,7 39 21 55 30 WSW 0,3 0
25.09.2020 10:00:00 4,6 4,6 40 22 57 31 W 0,3 0
25.09.2020 09:00:00 5,2 5,2 46 25 56 30 WSW 0,1 0
25.09.2020 08:00:00 7,1 7,1 38 20 60 33 SW 0,1 0
25.09.2020 07:00:00 7,1 7,1 49 26 63 34 SW 0,1 0
25.09.2020 06:00:00 7,2 7,2 54 29 65 35 SSW - 0
25.09.2020 05:00:00 7,3 7,3 47 26 61 33 SSW 0,1 0
25.09.2020 04:00:00 7,3 7,3 51 27 66 35 S 0,1 0
25.09.2020 03:00:00 7,4 7,3 52 28 61 33 S 15 0
25.09.2020 02:00:00 7,2 6,0 39 21 56 31 S 48 0
25.09.2020 01:00:00 7,3 7,3 50 27 76 41 SW 0,2 0
25.09.2020 00:00:00 8,3 8,3 51 27 64 35 SSW 0,1 0
24.09.2020 23:00:00 9,0 7,1 50 27 71 38 SSW 75 0
24.09.2020 22:00:00 9,4 5,6 53 28 69 37 S 75 0
24.09.2020 21:00:00 9,2 4,9 49 27 63 34 SSW 72 0
24.09.2020 20:00:00 9,1 3,6 51 27 64 34 SSW 58 0
24.09.2020 19:00:00 9,5 3,2 42 23 55 30 SSW 75 8
24.09.2020 18:00:00 9,9 2,2 43 23 61 33 SSW 74 52
24.09.2020 17:00:00 10,2 2,4 38 20 60 32 SSW 69 60
24.09.2020 16:00:00 9,7 2,9 40 22 60 33 SSW 75 57
24.09.2020 15:00:00 9,2 1,9 42 23 60 33 SSW 75 49
24.09.2020 14:00:00 9,2 4,4 39 21 63 34 SW 61 44
24.09.2020 13:00:00 7,7 4,7 54 29 71 38 WSW 56 51
24.09.2020 12:00:00 6,5 5,1 53 29 67 36 WSW 40 44
24.09.2020 11:00:00 7,0 5,3 48 26 70 38 WSW 26 33
24.09.2020 10:00:00 7,0 6,9 44 24 77 41 W 0,3 0
24.09.2020 09:00:00 9,5 9,5 46 25 69 37 SW 0,1 0
24.09.2020 08:00:00 9,4 9,4 46 25 69 38 SW - 0
24.09.2020 07:00:00 9,1 9,1 52 28 79 43 SW 0,1 0
24.09.2020 06:00:00 9,3 8,9 61 33 79 42 SSW 8 0
24.09.2020 05:00:00 9,6 8,9 59 32 76 41 SSW 18 0
24.09.2020 04:00:00 10,0 8,9 60 33 74 40 SSW 22 0
24.09.2020 03:00:00 10,1 8,8 61 33 74 40 SW 29 0
24.09.2020 02:00:00 10,4 8,6 56 30 70 38 SW 30 0
24.09.2020 01:00:00 10,9 8,4 55 30 73 39 SW 32 0
24.09.2020 00:00:00 11,3 8,0 56 30 68 37 SW 35 0
23.09.2020 23:00:00 11,7 7,3 49 26 64 34 SW 39 0
23.09.2020 22:00:00 12,4 7,1 51 28 63 34 SW 43 0
23.09.2020 21:00:00 13,0 6,6 44 24 53 29 SSW 48 0
23.09.2020 20:00:00 13,5 4,3 35 19 40 21 SSW 59 0
23.09.2020 19:00:00 14,0 4,4 25 14 37 20 SSW 61 46
23.09.2020 18:00:00 14,6 4,5 30 16 42 23 SW 50 60
23.09.2020 17:00:00 15,0 3,4 32 17 42 23 SW 57 60
23.09.2020 16:00:00 14,9 4,3 31 17 49 26 SSW 43 60
23.09.2020 15:00:00 14,8 5,3 34 18 43 23 SW 46 54
23.09.2020 14:00:00 16,0 5,9 23 12 37 20 W 47 58
23.09.2020 13:00:00 15,5 6,1 27 15 43 23 SW 62 56
23.09.2020 12:00:00 15,3 6,6 24 13 39 21 WSW 49 47
23.09.2020 11:00:00 14,7 5,9 30 16 44 24 WSW 39 48
23.09.2020 10:00:00 13,4 5,9 36 20 43 23 SW 41 14
23.09.2020 09:00:00 13,6 5,3 35 19 39 21 SW 45 0
23.09.2020 08:00:00 14,0 4,9 34 18 39 21 WSW 52 0
23.09.2020 07:00:00 14,0 5,2 33 18 42 23 WSW 50 0
23.09.2020 06:00:00 13,0 7,5 37 20 44 24 WSW 41 0
23.09.2020 05:00:00 13,7 7,1 39 21 46 25 SW 47 0
23.09.2020 04:00:00 14,2 7,3 43 23 49 27 SW 41 0
23.09.2020 03:00:00 13,8 6,8 36 20 42 23 SW 47 0
23.09.2020 02:00:00 14,1 5,2 34 18 46 25 SW 53 0
23.09.2020 01:00:00 14,0 5,8 40 21 45 24 SW 52 0
23.09.2020 00:00:00 14,0 6,5 34 19 39 21 SSW 54 0
22.09.2020 23:00:00 14,4 6,1 29 16 33 18 S 61 0
22.09.2020 22:00:00 14,6 6,4 24 13 26 14 S 54 0
22.09.2020 21:00:00 14,5 5,5 21 11 23 12 S 58 0
22.09.2020 20:00:00 14,5 5,2 18 10 21 11 S 62 2
22.09.2020 19:00:00 15,2 4,6 19 10 24 13 SSW 67 56
22.09.2020 18:00:00 16,1 4,6 19 10 26 14 SW 66 60
22.09.2020 17:00:00 17,1 4,5 15 8 29 16 SW 55 60
22.09.2020 16:00:00 17,0 4,7 22 12 32 17 SW 74 60
22.09.2020 15:00:00 16,9 3,2 24 13 34 18 SW 75 60
22.09.2020 14:00:00 16,9 1,9 25 13 34 18 WSW 53 60
22.09.2020 13:00:00 17,1 5,2 18 10 37 20 SSW 54 60
22.09.2020 12:00:00 15,9 5,0 26 14 35 19 SSW 75 60
22.09.2020 11:00:00 16,0 5,1 21 11 29 16 SSW 51 60
22.09.2020 10:00:00 15,6 5,6 13 7 19 10 SSW 60 60
22.09.2020 09:00:00 14,1 6,7 10 5 16 9 WSW 72 59
22.09.2020 08:00:00 12,9 6,9 15 8 22 12 W 51 28
22.09.2020 07:00:00 11,7 6,4 21 12 23 12 W 56 0
22.09.2020 06:00:00 12,1 6,6 23 12 27 14 W 59 0
22.09.2020 05:00:00 13,3 7,3 23 13 26 14 WSW 51 0
22.09.2020 04:00:00 13,1 8,2 24 13 25 13 SW 49 0
22.09.2020 03:00:00 12,7 7,5 23 12 29 15 SSW 43 0
22.09.2020 02:00:00 13,0 7,1 28 15 34 19 SSW 54 0
22.09.2020 01:00:00 12,8 7,0 29 15 32 18 SSW 46 0
22.09.2020 00:00:00 12,6 6,4 26 14 27 15 S 45 0
21.09.2020 23:00:00 12,6 6,3 24 13 26 14 S 40 0
21.09.2020 22:00:00 12,9 6,3 25 13 27 15 SSE 44 0
21.09.2020 21:00:00 12,9 6,5 18 10 21 11 SSE 38 0
21.09.2020 20:00:00 13,2 6,6 14 8 17 9 S 44 12
21.09.2020 19:00:00 14,2 6,5 14 8 23 12 SSE 54 57
21.09.2020 18:00:00 15,5 6,3 14 8 20 11 S 44 60
21.09.2020 17:00:00 16,5 6,4 14 7 25 14 SSE 52 60
21.09.2020 16:00:00 16,0 6,5 16 9 32 17 S 54 60
21.09.2020 15:00:00 16,4 6,4 16 8 26 14 S 42 60
21.09.2020 14:00:00 15,8 6,2 17 9 28 15 SE 48 60
21.09.2020 13:00:00 14,5 6,4 22 12 34 19 SE 75 60
21.09.2020 12:00:00 13,5 4,9 27 15 34 18 ESE 75 60
21.09.2020 11:00:00 13,5 5,0 24 13 33 18 ESE 45 60
21.09.2020 10:00:00 12,7 5,0 25 13 35 19 E 49 60
21.09.2020 09:00:00 11,8 4,1 26 14 34 18 E 75 58
21.09.2020 08:00:00 10,8 3,7 29 16 34 18 E 62 30
21.09.2020 07:00:00 10,6 4,2 28 15 32 17 E 55 0
21.09.2020 06:00:00 10,8 3,9 25 13 28 15 E 54 0
21.09.2020 05:00:00 10,9 4,9 21 12 23 12 E 56 0
21.09.2020 04:00:00 11,3 3,8 23 12 29 16 SE 70 0
21.09.2020 03:00:00 11,4 3,3 29 16 35 19 SSE 65 0
21.09.2020 02:00:00 10,5 3,0 31 17 38 20 SE 58 0
21.09.2020 01:00:00 10,5 3,5 33 18 38 21 ESE 66 0
21.09.2020 00:00:00 10,4 2,7 34 18 41 22 E 58 0
20.09.2020 23:00:00 10,0 2,8 30 16 41 22 E 58 0
20.09.2020 22:00:00 10,2 3,4 30 16 41 22 E 57 0
20.09.2020 21:00:00 10,8 3,5 34 19 47 25 ENE 53 0
20.09.2020 20:00:00 11,6 3,0 39 21 48 26 ENE 50 19
20.09.2020 19:00:00 12,5 1,6 31 17 37 20 ENE 73 56
20.09.2020 18:00:00 12,9 0,6 24 13 32 17 E 71 60
20.09.2020 17:00:00 14,2 0,7 20 11 31 17 E 66 60
20.09.2020 16:00:00 14,4 2,0 20 11 29 16 E 75 60
20.09.2020 15:00:00 14,4 0,3 21 11 30 16 E 70 60
20.09.2020 14:00:00 14,2 0,3 22 12 39 21 ESE 66 60
20.09.2020 13:00:00 13,6 1,4 21 12 40 21 ESE 75 60

tt = temperature
td = dewpoint
ff = wind speed
fx = gusts
dd = wind direction
vv = visibility
sd = sunshine duration

Next stations